Willow Street, Pennsylvania
Current Conditions -  °F | °C
As of 4:53 AM on Saturday 20 Dec 2014 (Local Time) from KLNS Reporting Station
Overcast Overcast  
Wind Chill: 23°   Ceiling: 3100
Heat Index: 31°   Visibility: 10mi
Dew Point: 21°   Wind: 8mph
Humidity: 67%   Direction: 310°NW
Pressure: 30.23"   Gusts: NA
Location:  39.98°N, 76.27°W
Report Text: KLNS 200953Z 31007KT 10SM OVC031 M01/M06 A3023 RMK AO2 SLP242 T10061061
Loading
Personal Weather Stations






























Interactive Weather Map New forecast layout! Learn more

10-Day Weather Forecast

Advertisements
Track Severe Weather on mobile